Time;durP1;ratioP1;P1;durP2;ratioP2;P2;SDS_P1;SDS_P2;PMS_P1;PMS_P2;Temp;Humidity;BMP_temperature;BMP_pressure;BME280_temperature;BME280_humidity;BME280_pressure;Samples;Min_cycle;Max_cycle;Signal;HPM_P1;HPM_P2
2023/03/24 00:01:09;;;;;;;1.88;1.77;;;;;;;;;;4996080;28;20270;-84
2023/03/24 00:03:36;;;;;;;1.52;1.42;;;;;;;;;;4995343;28;20250;-84
2023/03/24 00:06:08;;;;;;;1.70;1.60;;;;;;;;;;4994497;28;20211;-83
2023/03/24 00:08:38;;;;;;;1.60;1.50;;;;;;;;;;4995184;28;20648;-84
2023/03/24 00:11:10;;;;;;;2.35;2.20;;;;;;;;;;4996241;28;20234;-85
2023/03/24 00:13:39;;;;;;;2.05;1.90;;;;;;;;;;4996311;28;20192;-86
2023/03/24 00:16:10;;;;;;;1.98;1.88;;;;;;;;;;4996208;28;20250;-83
2023/03/24 00:18:39;;;;;;;1.67;1.50;;;;;;;;;;4995531;28;20231;-84
2023/03/24 00:21:10;;;;;;;1.85;1.75;;;;;;;;;;4995857;28;20227;-83
2023/03/24 00:23:41;;;;;;;1.77;1.65;;;;;;;;;;4996131;28;20589;-84
2023/03/24 00:26:13;;;;;;;1.70;1.60;;;;;;;;;;4995659;28;20192;-85
2023/03/24 00:28:44;;;;;;;2.28;2.00;;;;;;;;;;4994073;28;20203;-84
2023/03/24 00:31:14;;;;;;;2.42;2.22;;;;;;;;;;4994619;28;20196;-84
2023/03/24 00:33:43;;;;;;;2.63;2.30;;;;;;;;;;4995533;28;20235;-84
2023/03/24 00:36:12;;;;;;;4.57;3.05;;;;;;;;;;4995418;28;20723;-84
2023/03/24 00:38:42;;;;;;;3.67;3.10;;;;;;;;;;4994359;28;20703;-84
2023/03/24 00:41:10;;;;;;;2.03;1.83;;;;;;;;;;4995338;28;20274;-84
2023/03/24 00:43:38;;;;;;;2.00;1.83;;;;;;;;;;4995566;28;20258;-84
2023/03/24 00:46:09;;;;;;;1.90;1.80;;;;;;;;;;4995607;28;20200;-84
2023/03/24 00:48:40;;;;;;;2.20;2.00;;;;;;;;;;4980861;28;20250;-84
2023/03/24 00:51:09;;;;;;;2.28;2.08;;;;;;;;;;4995455;28;20188;-85
2023/03/24 00:53:42;;;;;;;2.05;1.95;;;;;;;;;;4980322;28;20201;-84
2023/03/24 00:56:14;;;;;;;2.10;2.00;;;;;;;;;;4976301;28;20189;-84
2023/03/24 00:58:42;;;;;;;2.15;1.95;;;;;;;;;;4991575;28;20562;-84
2023/03/24 01:01:09;;;;;;;2.22;1.45;;;;;;;;;;4994931;28;20684;-84
2023/03/24 01:03:47;;;;;;;2.00;1.90;;;;;;;;;;4994509;28;20668;-84
2023/03/24 01:06:14;;;;;;;1.90;1.80;;;;;;;;;;4994144;28;20206;-84
2023/03/24 01:08:42;;;;;;;1.92;1.83;;;;;;;;;;4993723;28;20266;-84
2023/03/24 01:11:11;;;;;;;2.38;2.28;;;;;;;;;;4995075;28;20538;-84
2023/03/24 01:13:40;;;;;;;2.33;1.73;;;;;;;;;;4994832;28;20612;-84
2023/03/24 01:16:09;;;;;;;2.03;1.83;;;;;;;;;;4994760;28;20203;-84
2023/03/24 01:18:39;;;;;;;2.10;2.00;;;;;;;;;;4993937;28;20574;-84
2023/03/24 01:21:08;;;;;;;1.95;1.80;;;;;;;;;;4994929;28;20215;-84
2023/03/24 01:23:36;;;;;;;2.95;2.70;;;;;;;;;;4995362;28;20200;-84
2023/03/24 01:26:07;;;;;;;2.00;1.90;;;;;;;;;;4995046;28;20241;-83
2023/03/24 01:28:39;;;;;;;1.95;1.80;;;;;;;;;;4994993;28;20622;-84
2023/03/24 01:31:08;;;;;;;2.67;2.47;;;;;;;;;;4985780;28;20191;-84
2023/03/24 01:33:37;;;;;;;1.90;1.70;;;;;;;;;;4994929;28;20276;-84
2023/03/24 01:36:06;;;;;;;3.15;2.67;;;;;;;;;;4994048;28;20250;-83
2023/03/24 01:38:34;;;;;;;2.05;1.95;;;;;;;;;;4993124;28;20200;-83
2023/03/24 01:41:02;;;;;;;2.47;2.28;;;;;;;;;;4993642;28;20258;-84
2023/03/24 01:43:33;;;;;;;2.40;2.20;;;;;;;;;;4993666;28;20235;-84
2023/03/24 01:46:17;;;;;;;2.53;2.38;;;;;;;;;;4995006;28;20668;-83
2023/03/24 01:48:49;;;;;;;2.20;2.10;;;;;;;;;;4994122;28;20184;-84
2023/03/24 01:51:22;;;;;;;2.20;2.10;;;;;;;;;;4994228;28;20684;-84
2023/03/24 01:53:54;;;;;;;1.95;1.83;;;;;;;;;;4994309;28;20262;-84
2023/03/24 01:56:23;;;;;;;3.00;2.60;;;;;;;;;;4994978;28;20188;-84
2023/03/24 01:58:56;;;;;;;3.03;2.40;;;;;;;;;;4994066;28;20207;-83
2023/03/24 02:01:28;;;;;;;2.50;2.30;;;;;;;;;;4994312;28;20736;-84
2023/03/24 02:03:56;;;;;;;2.40;2.20;;;;;;;;;;4994048;28;20200;-84
2023/03/24 02:06:25;;;;;;;2.50;2.30;;;;;;;;;;4993504;28;20204;-84
2023/03/24 02:08:55;;;;;;;2.60;2.40;;;;;;;;;;4992302;28;20206;-83
2023/03/24 02:11:25;;;;;;;2.70;2.50;;;;;;;;;;4994630;28;20227;-83
2023/03/24 02:13:53;;;;;;;2.80;2.60;;;;;;;;;;4994461;28;20192;-83
2023/03/24 02:16:47;;;;;;;2.70;2.50;;;;;;;;;;4994214;28;20208;-84
2023/03/24 02:20:08;;;;;;;2.20;2.10;;;;;;;;;;4993876;28;20238;-84
2023/03/24 02:23:13;;;;;;;2.33;2.13;;;;;;;;;;4994256;28;20323;-84
2023/03/24 02:26:35;;;;;;;2.67;2.20;;;;;;;;;;4994496;28;20203;-83
2023/03/24 02:29:47;;;;;;;2.00;1.80;;;;;;;;;;4977445;28;20251;-84
2023/03/24 02:32:46;;;;;;;2.90;2.70;;;;;;;;;;4973704;28;20256;-83
2023/03/24 02:35:38;;;;;;;3.15;2.85;;;;;;;;;;4966043;28;20258;-82
2023/03/24 02:38:56;;;;;;;2.05;1.95;;;;;;;;;;4974553;28;20212;-83
2023/03/24 02:41:28;;;;;;;2.65;2.45;;;;;;;;;;4976358;28;20228;-85
2023/03/24 02:44:03;;;;;;;2.95;2.67;;;;;;;;;;4994145;28;20254;-84
2023/03/24 02:46:36;;;;;;;2.88;2.67;;;;;;;;;;4994027;28;20188;-84
2023/03/24 02:49:21;;;;;;;2.42;2.22;;;;;;;;;;4993342;28;20188;-84
2023/03/24 02:51:55;;;;;;;3.10;2.80;;;;;;;;;;4995547;28;20285;-84
2023/03/24 02:54:31;;;;;;;2.65;2.45;;;;;;;;;;4997709;28;20286;-83
2023/03/24 02:57:05;;;;;;;3.88;2.72;;;;;;;;;;4998054;28;20191;-82
2023/03/24 02:59:37;;;;;;;3.72;3.33;;;;;;;;;;4998100;28;20238;-84
2023/03/24 03:02:09;;;;;;;2.42;2.20;;;;;;;;;;4997689;28;20275;-83
2023/03/24 03:04:45;;;;;;;2.80;2.60;;;;;;;;;;4993091;28;20257;-85
2023/03/24 03:07:15;;;;;;;3.08;2.60;;;;;;;;;;4977241;28;20228;-83
2023/03/24 03:09:49;;;;;;;3.63;2.95;;;;;;;;;;4977088;28;20544;-84
2023/03/24 03:12:19;;;;;;;3.13;2.92;;;;;;;;;;4987965;28;20689;-84
2023/03/24 03:14:50;;;;;;;3.10;2.90;;;;;;;;;;4997006;28;20250;-84
2023/03/24 03:17:20;;;;;;;3.10;2.90;;;;;;;;;;4997117;28;20196;-83
2023/03/24 03:19:51;;;;;;;3.10;2.83;;;;;;;;;;4996533;28;20660;-83
2023/03/24 03:22:22;;;;;;;3.05;2.75;;;;;;;;;;4996946;28;20255;-84
2023/03/24 03:24:53;;;;;;;3.38;3.08;;;;;;;;;;4997323;28;20192;-84
2023/03/24 03:27:26;;;;;;;2.83;2.63;;;;;;;;;;4997100;28;20224;-84
2023/03/24 03:29:59;;;;;;;2.80;2.60;;;;;;;;;;4996775;28;20671;-82
2023/03/24 03:32:29;;;;;;;3.38;3.08;;;;;;;;;;4995860;28;20224;-84
2023/03/24 03:35:00;;;;;;;5.57;2.80;;;;;;;;;;4996804;28;20620;-83
2023/03/24 03:37:32;;;;;;;4.10;3.08;;;;;;;;;;4996097;28;20211;-83
2023/03/24 03:40:04;;;;;;;2.90;2.70;;;;;;;;;;4994357;28;20204;-84
2023/03/24 03:42:34;;;;;;;5.30;2.45;;;;;;;;;;4996966;28;20219;-84
2023/03/24 03:45:01;;;;;;;3.10;2.83;;;;;;;;;;4996811;28;20265;-83
2023/03/24 03:47:29;;;;;;;3.25;2.88;;;;;;;;;;4997072;28;20195;-83
2023/03/24 03:49:57;;;;;;;3.50;3.20;;;;;;;;;;4995818;28;20211;-84
2023/03/24 03:52:24;;;;;;;2.65;2.45;;;;;;;;;;4996833;28;20228;-85
2023/03/24 03:54:53;;;;;;;3.17;2.88;;;;;;;;;;4996656;28;20254;-82
2023/03/24 03:57:21;;;;;;;3.45;3.15;;;;;;;;;;4996213;28;20239;-84
2023/03/24 03:59:50;;;;;;;3.47;2.40;;;;;;;;;;4996319;28;20212;-84
2023/03/24 04:02:34;;;;;;;4.38;3.10;;;;;;;;;;4996505;28;20231;-83
2023/03/24 04:05:24;;;;;;;2.65;2.45;;;;;;;;;;4996400;28;20184;-84
2023/03/24 04:08:17;;;;;;;2.67;2.47;;;;;;;;;;4995818;28;20649;-84
2023/03/24 04:11:15;;;;;;;3.00;2.70;;;;;;;;;;4990171;28;20218;-84
2023/03/24 04:13:53;;;;;;;2.55;2.35;;;;;;;;;;4996411;28;20188;-84
2023/03/24 04:16:32;;;;;;;2.88;2.63;;;;;;;;;;4995950;28;20192;-83
2023/03/24 04:19:11;;;;;;;2.58;2.38;;;;;;;;;;4995323;28;20734;-84
2023/03/24 04:21:50;;;;;;;2.33;2.20;;;;;;;;;;4995688;28;20273;-84
2023/03/24 04:24:31;;;;;;;2.75;2.55;;;;;;;;;;4995520;28;20269;-84
2023/03/24 04:27:08;;;;;;;3.22;2.60;;;;;;;;;;4995599;28;20238;-83
2023/03/24 04:29:41;;;;;;;3.47;2.42;;;;;;;;;;4995386;28;20222;-83
2023/03/24 04:32:18;;;;;;;2.20;2.10;;;;;;;;;;4988258;28;20247;-83
2023/03/24 04:34:49;;;;;;;2.58;2.38;;;;;;;;;;4995392;28;20207;-83
2023/03/24 04:37:21;;;;;;;2.00;1.90;;;;;;;;;;4993740;28;20204;-83
2023/03/24 04:39:50;;;;;;;1.92;1.77;;;;;;;;;;4994752;28;20560;-82
2023/03/24 04:42:21;;;;;;;1.70;1.60;;;;;;;;;;5003319;23;20326;-85
2023/03/24 04:44:50;;;;;;;2.10;1.90;;;;;;;;;;5039977;28;20300;-85
2023/03/24 04:47:21;;;;;;;2.03;1.90;;;;;;;;;;5045111;28;20666;-85
2023/03/24 04:49:49;;;;;;;2.35;2.15;;;;;;;;;;5034149;28;20223;-85
2023/03/24 04:52:17;;;;;;;2.78;2.40;;;;;;;;;;5066418;22;20873;-80
2023/03/24 04:54:44;;;;;;;2.83;2.35;;;;;;;;;;5018113;28;20293;-81
2023/03/24 04:57:12;;;;;;;2.00;1.90;;;;;;;;;;5013613;28;20294;-80
2023/03/24 04:59:39;;;;;;;3.00;2.80;;;;;;;;;;5011260;28;20313;-80
2023/03/24 05:02:06;;;;;;;2.28;2.10;;;;;;;;;;5010417;28;20711;-80
2023/03/24 05:04:35;;;;;;;3.88;2.85;;;;;;;;;;4993357;28;20227;-80
2023/03/24 05:07:03;;;;;;;3.25;2.20;;;;;;;;;;4993827;28;20262;-80
2023/03/24 05:09:31;;;;;;;2.30;2.10;;;;;;;;;;5013184;28;20218;-80
2023/03/24 05:11:59;;;;;;;3.00;2.53;;;;;;;;;;5013166;28;20643;-80
2023/03/24 05:14:26;;;;;;;2.25;2.05;;;;;;;;;;5012107;28;20302;-81
2023/03/24 05:16:55;;;;;;;2.53;2.00;;;;;;;;;;5013351;28;20608;-80
2023/03/24 05:19:23;;;;;;;1.95;1.85;;;;;;;;;;5012557;28;20665;-80
2023/03/24 05:21:52;;;;;;;2.20;2.10;;;;;;;;;;5012989;28;20667;-81
2023/03/24 05:24:21;;;;;;;3.47;2.50;;;;;;;;;;5012972;28;20235;-80
2023/03/24 05:26:48;;;;;;;2.72;2.53;;;;;;;;;;5007974;28;20218;-80
2023/03/24 05:29:15;;;;;;;2.63;2.35;;;;;;;;;;5011287;28;20218;-81
2023/03/24 05:31:43;;;;;;;2.70;2.50;;;;;;;;;;5011750;28;20199;-80
2023/03/24 05:34:11;;;;;;;2.88;2.40;;;;;;;;;;5012891;28;20609;-80
2023/03/24 05:36:38;;;;;;;1.90;1.70;;;;;;;;;;5012715;28;20203;-80
2023/03/24 05:39:07;;;;;;;2.40;2.20;;;;;;;;;;5012783;28;20222;-80
2023/03/24 05:41:35;;;;;;;3.33;2.08;;;;;;;;;;5013617;28;20202;-84
2023/03/24 05:44:02;;;;;;;2.80;2.60;;;;;;;;;;5015598;28;20313;-84
2023/03/24 05:46:30;;;;;;;2.40;2.20;;;;;;;;;;5013729;28;20289;-84
2023/03/24 05:48:57;;;;;;;3.60;2.13;;;;;;;;;;4999968;28;20230;-84
2023/03/24 05:51:25;;;;;;;2.35;2.15;;;;;;;;;;5014648;28;20230;-84
2023/03/24 05:53:52;;;;;;;2.38;2.17;;;;;;;;;;5015099;28;20293;-84
2023/03/24 05:56:21;;;;;;;2.40;2.20;;;;;;;;;;5016393;28;20460;-84
2023/03/24 05:58:50;;;;;;;3.13;2.65;;;;;;;;;;5015444;28;20354;-84
2023/03/24 06:01:18;;;;;;;3.40;2.58;;;;;;;;;;5014349;28;20207;-84
2023/03/24 06:03:45;;;;;;;3.58;3.28;;;;;;;;;;5012240;28;20222;-84
2023/03/24 06:06:15;;;;;;;2.78;2.58;;;;;;;;;;5012939;28;20285;-84
2023/03/24 06:08:43;;;;;;;2.83;2.40;;;;;;;;;;5006377;28;20222;-84
2023/03/24 06:11:12;;;;;;;2.45;2.25;;;;;;;;;;5013856;28;20678;-84
2023/03/24 06:13:41;;;;;;;2.97;2.72;;;;;;;;;;5012867;28;20202;-84
2023/03/24 06:16:09;;;;;;;2.63;2.35;;;;;;;;;;5001122;28;20214;-84
2023/03/24 06:18:39;;;;;;;2.42;2.03;;;;;;;;;;5012391;28;20219;-83
2023/03/24 06:21:07;;;;;;;2.53;2.33;;;;;;;;;;5012519;28;20203;-83
2023/03/24 06:23:34;;;;;;;2.45;2.25;;;;;;;;;;5012141;28;20198;-83
2023/03/24 06:26:02;;;;;;;2.80;2.50;;;;;;;;;;5015476;28;20281;-83
2023/03/24 06:28:33;;;;;;;2.72;2.20;;;;;;;;;;5014865;28;20703;-85
2023/03/24 06:31:04;;;;;;;2.50;2.30;;;;;;;;;;5014046;28;20211;-83
2023/03/24 06:33:31;;;;;;;3.30;2.40;;;;;;;;;;5011171;28;20212;-85
2023/03/24 06:36:00;;;;;;;2.58;2.38;;;;;;;;;;5014845;28;20213;-84
2023/03/24 06:38:28;;;;;;;3.05;2.85;;;;;;;;;;5017819;28;20253;-84
2023/03/24 06:40:59;;;;;;;2.78;2.58;;;;;;;;;;5015269;28;20290;-84
2023/03/24 06:43:26;;;;;;;2.67;2.42;;;;;;;;;;5016671;28;20281;-83
2023/03/24 06:45:54;;;;;;;2.40;2.20;;;;;;;;;;5015659;28;20249;-82
2023/03/24 06:48:23;;;;;;;3.33;3.03;;;;;;;;;;5015922;28;20238;-83
2023/03/24 06:50:53;;;;;;;2.75;2.45;;;;;;;;;;5015760;28;20286;-84
2023/03/24 06:53:21;;;;;;;2.95;2.70;;;;;;;;;;5015597;28;20298;-83
2023/03/24 06:55:48;;;;;;;3.28;2.97;;;;;;;;;;5015583;28;20207;-85
2023/03/24 06:58:17;;;;;;;2.50;2.30;;;;;;;;;;5015192;28;20251;-83
2023/03/24 07:00:45;;;;;;;2.47;2.28;;;;;;;;;;5011065;28;20200;-84
2023/03/24 07:03:14;;;;;;;2.78;2.58;;;;;;;;;;5007056;28;20196;-83
2023/03/24 07:05:45;;;;;;;5.22;2.72;;;;;;;;;;5001522;28;20221;-87
2023/03/24 07:08:12;;;;;;;3.00;2.80;;;;;;;;;;5015323;28;20654;-83
2023/03/24 07:10:41;;;;;;;3.33;2.38;;;;;;;;;;5009997;28;20626;-83
2023/03/24 07:13:09;;;;;;;2.97;2.28;;;;;;;;;;5000786;28;20569;-84
2023/03/24 07:15:36;;;;;;;1.88;1.77;;;;;;;;;;5014096;28;20250;-84
2023/03/24 07:18:04;;;;;;;1.67;1.58;;;;;;;;;;5014556;28;20199;-84
2023/03/24 07:20:31;;;;;;;2.00;1.73;;;;;;;;;;5013281;28;21952;-85
2023/03/24 07:23:01;;;;;;;1.55;1.45;;;;;;;;;;5012029;28;20290;-83
2023/03/24 07:25:28;;;;;;;1.85;1.75;;;;;;;;;;5012603;28;20498;-83
2023/03/24 07:27:57;;;;;;;1.65;1.55;;;;;;;;;;5017886;28;20202;-84
2023/03/24 07:30:25;;;;;;;2.53;1.65;;;;;;;;;;5030568;28;20581;-83
2023/03/24 07:32:57;;;;;;;2.10;1.90;;;;;;;;;;5013972;28;20289;-84
2023/03/24 07:35:24;;;;;;;1.60;1.50;;;;;;;;;;5006455;28;20214;-83
2023/03/24 07:37:52;;;;;;;1.10;1.10;;;;;;;;;;5014917;28;20249;-83
2023/03/24 07:40:21;;;;;;;2.22;2.03;;;;;;;;;;5006570;28;20646;-84
2023/03/24 07:42:48;;;;;;;1.83;1.73;;;;;;;;;;5011533;28;20199;-84
2023/03/24 07:45:16;;;;;;;1.20;1.10;;;;;;;;;;5006218;28;20309;-84
2023/03/24 07:47:45;;;;;;;1.70;1.60;;;;;;;;;;5007987;28;20246;-83
2023/03/24 07:50:14;;;;;;;2.85;1.58;;;;;;;;;;5006229;28;20219;-83
2023/03/24 07:52:44;;;;;;;1.60;1.50;;;;;;;;;;5008476;28;20213;-84
2023/03/24 07:55:12;;;;;;;1.58;1.48;;;;;;;;;;5008064;28;20205;-83
2023/03/24 07:57:41;;;;;;;1.40;1.30;;;;;;;;;;5011556;28;20341;-84
2023/03/24 08:00:14;;;;;;;2.63;1.50;;;;;;;;;;5003365;28;20220;-83
2023/03/24 08:02:42;;;;;;;1.00;1.00;;;;;;;;;;5016105;28;20199;-83
2023/03/24 08:05:12;;;;;;;1.40;1.30;;;;;;;;;;5013218;28;20269;-84
2023/03/24 08:07:42;;;;;;;2.22;1.27;;;;;;;;;;5012939;28;20199;-84
2023/03/24 08:10:12;;;;;;;1.15;1.05;;;;;;;;;;5011942;28;20744;-84
2023/03/24 08:12:41;;;;;;;0.98;0.98;;;;;;;;;;5013084;28;20211;-83
2023/03/24 08:15:10;;;;;;;1.15;0.98;;;;;;;;;;5008231;28;20722;-84
2023/03/24 08:17:37;;;;;;;1.35;1.17;;;;;;;;;;5012947;28;20195;-84
2023/03/24 08:20:10;;;;;;;0.80;0.80;;;;;;;;;;5012103;28;20313;-85
2023/03/24 08:22:39;;;;;;;0.70;0.70;;;;;;;;;;5006622;28;20219;-86
2023/03/24 08:25:07;;;;;;;1.35;1.00;;;;;;;;;;5013740;28;20304;-86
2023/03/24 08:27:36;;;;;;;1.00;0.88;;;;;;;;;;5002963;28;20204;-85
2023/03/24 08:30:15;;;;;;;1.50;1.20;;;;;;;;;;5006777;28;20237;-84
2023/03/24 08:32:45;;;;;;;1.13;1.02;;;;;;;;;;5010621;28;20203;-84
2023/03/24 08:35:14;;;;;;;0.95;0.80;;;;;;;;;;5001529;28;20287;-84
2023/03/24 08:37:43;;;;;;;0.60;0.60;;;;;;;;;;5009510;28;20199;-85
2023/03/24 08:40:16;;;;;;;0.70;0.70;;;;;;;;;;5014132;28;20219;-85
2023/03/24 08:42:43;;;;;;;0.82;0.82;;;;;;;;;;5012906;28;20634;-84
2023/03/24 08:45:13;;;;;;;1.75;0.85;;;;;;;;;;5010768;28;20229;-83
2023/03/24 08:47:40;;;;;;;4.07;3.63;;;;;;;;;;5013378;28;20325;-84
2023/03/24 08:50:10;;;;;;;2.95;2.75;;;;;;;;;;5011852;28;20706;-84
2023/03/24 08:52:40;;;;;;;2.60;2.40;;;;;;;;;;5003420;28;20237;-85
2023/03/24 08:55:10;;;;;;;2.50;2.30;;;;;;;;;;4997862;28;20283;-85
2023/03/24 08:57:37;;;;;;;2.10;2.00;;;;;;;;;;5010459;28;20234;-83
2023/03/24 09:00:12;;;;;;;12.60;11.70;;;;;;;;;;5011656;28;20265;-84
2023/03/24 09:02:42;;;;;;;6.28;5.88;;;;;;;;;;5014068;28;20205;-85
2023/03/24 09:05:10;;;;;;;4.03;3.72;;;;;;;;;;5013910;28;20591;-84
2023/03/24 09:07:37;;;;;;;4.47;4.18;;;;;;;;;;5014678;28;20319;-84
2023/03/24 09:10:07;;;;;;;2.75;2.55;;;;;;;;;;5014285;28;20227;-85
2023/03/24 09:12:35;;;;;;;1.80;1.70;;;;;;;;;;5013037;28;20290;-85
2023/03/24 09:15:03;;;;;;;1.52;1.42;;;;;;;;;;4999440;28;20222;-85
2023/03/24 09:17:31;;;;;;;6.60;1.85;;;;;;;;;;5012601;28;20226;-86
2023/03/24 09:20:00;;;;;;;1.20;1.10;;;;;;;;;;5012733;28;20231;-86
2023/03/24 09:22:28;;;;;;;1.15;1.15;;;;;;;;;;5012868;28;20234;-86
2023/03/24 09:24:55;;;;;;;2.47;1.20;;;;;;;;;;5012942;28;20203;-85
2023/03/24 09:27:23;;;;;;;1.30;1.00;;;;;;;;;;5008136;28;20249;-85
2023/03/24 09:29:52;;;;;;;3.13;1.27;;;;;;;;;;5013147;28;20758;-87
2023/03/24 09:32:20;;;;;;;0.90;0.90;;;;;;;;;;5013789;28;20290;-85
2023/03/24 09:34:47;;;;;;;1.10;1.00;;;;;;;;;;5008793;28;20231;-86
2023/03/24 09:37:16;;;;;;;1.00;1.00;;;;;;;;;;5005192;28;20282;-85
2023/03/24 09:39:44;;;;;;;1.05;1.02;;;;;;;;;;5012987;28;20282;-86
2023/03/24 09:42:20;;;;;;;1.27;1.10;;;;;;;;;;5005915;28;20204;-88
2023/03/24 09:44:52;;;;;;;0.98;0.77;;;;;;;;;;5006789;28;20560;-87
2023/03/24 09:47:28;;;;;;;1.05;0.90;;;;;;;;;;5005295;28;20219;-87
2023/03/24 09:49:57;;;;;;;1.02;1.02;;;;;;;;;;5011782;28;20706;-89
2023/03/24 09:52:32;;;;;;;0.70;0.70;;;;;;;;;;5003840;28;20657;-86
2023/03/24 09:55:01;;;;;;;0.98;0.90;;;;;;;;;;5011885;28;20208;-85
2023/03/24 09:57:35;;;;;;;0.93;0.90;;;;;;;;;;5011735;28;20257;-85
2023/03/24 10:00:03;;;;;;;1.40;1.05;;;;;;;;;;5012359;28;20307;-84
2023/03/24 10:02:31;;;;;;;1.08;0.90;;;;;;;;;;5002641;28;20282;-84
2023/03/24 10:04:59;;;;;;;0.90;0.70;;;;;;;;;;5009173;28;20208;-85
2023/03/24 10:07:33;;;;;;;2.10;1.35;;;;;;;;;;5004490;28;20686;-85
2023/03/24 10:10:02;;;;;;;2.17;1.00;;;;;;;;;;5009142;28;20254;-85
2023/03/24 10:12:36;;;;;;;1.60;1.30;;;;;;;;;;5006928;28;20636;-85
2023/03/24 10:15:12;;;;;;;1.02;0.90;;;;;;;;;;5001394;28;20214;-84
2023/03/24 10:17:48;;;;;;;1.20;0.85;;;;;;;;;;4998983;28;20191;-85
2023/03/24 10:20:28;;;;;;;1.05;0.77;;;;;;;;;;5002738;28;20230;-85
2023/03/24 10:23:03;;;;;;;0.80;0.80;;;;;;;;;;5006572;28;20223;-85
2023/03/24 10:25:43;;;;;;;1.70;1.00;;;;;;;;;;5011587;28;20273;-86
2023/03/24 10:28:16;;;;;;;1.25;1.10;;;;;;;;;;5009265;28;20227;-83
2023/03/24 10:30:45;;;;;;;1.73;0.70;;;;;;;;;;5003616;28;20192;-85
2023/03/24 10:33:13;;;;;;;1.13;0.70;;;;;;;;;;5003665;28;20200;-83
2023/03/24 10:35:46;;;;;;;1.25;0.80;;;;;;;;;;5010469;28;20664;-85
2023/03/24 10:38:18;;;;;;;1.23;0.98;;;;;;;;;;5001572;28;20278;-85
2023/03/24 10:40:47;;;;;;;1.92;0.85;;;;;;;;;;5003447;28;20213;-86
2023/03/24 10:43:17;;;;;;;3.28;1.30;;;;;;;;;;5003375;28;20204;-84
2023/03/24 10:45:47;;;;;;;1.00;1.00;;;;;;;;;;5010060;28;20218;-86
2023/03/24 10:48:31;;;;;;;0.85;0.85;;;;;;;;;;5006673;28;20223;-84
2023/03/24 10:50:59;;;;;;;1.55;1.38;;;;;;;;;;5011977;28;20617;-85
2023/03/24 10:53:28;;;;;;;3.47;1.52;;;;;;;;;;5011490;28;20207;-85
2023/03/24 10:55:55;;;;;;;2.22;0.88;;;;;;;;;;5009663;28;20745;-85
2023/03/24 10:58:30;;;;;;;2.45;1.20;;;;;;;;;;5011990;28;20258;-85
2023/03/24 11:01:00;;;;;;;6.47;2.67;;;;;;;;;;5007816;28;20225;-85
2023/03/24 11:03:32;;;;;;;2.45;1.70;;;;;;;;;;5011179;28;20226;-84
2023/03/24 11:06:01;;;;;;;1.40;1.02;;;;;;;;;;5008187;28;20214;-84
2023/03/24 11:08:36;;;;;;;1.17;1.08;;;;;;;;;;5010112;28;20264;-85
2023/03/24 11:11:15;;;;;;;1.65;1.13;;;;;;;;;;5003356;28;20206;-85
2023/03/24 11:13:55;;;;;;;2.25;1.40;;;;;;;;;;5012612;28;20289;-86
2023/03/24 11:16:29;;;;;;;1.33;1.23;;;;;;;;;;5013580;28;20250;-86
2023/03/24 11:18:59;;;;;;;1.08;1.02;;;;;;;;;;5014548;28;20599;-86
2023/03/24 11:21:28;;;;;;;2.33;1.10;;;;;;;;;;5014253;28;20262;-85
2023/03/24 11:24:00;;;;;;;2.00;1.10;;;;;;;;;;5010221;28;20209;-84
2023/03/24 11:26:32;;;;;;;0.90;0.90;;;;;;;;;;5014576;28;20276;-84
2023/03/24 11:29:05;;;;;;;1.83;1.40;;;;;;;;;;5003873;28;20250;-85
2023/03/24 11:31:37;;;;;;;1.35;1.00;;;;;;;;;;5014036;28;20199;-84
2023/03/24 11:34:10;;;;;;;5.78;3.97;;;;;;;;;;5006294;28;20282;-84
2023/03/24 11:36:48;;;;;;;3.28;2.15;;;;;;;;;;5012480;28;20302;-85
2023/03/24 11:39:23;;;;;;;3.25;2.90;;;;;;;;;;5012990;28;20218;-83
2023/03/24 11:42:05;;;;;;;3.55;1.90;;;;;;;;;;5013615;28;20608;-84
2023/03/24 11:44:46;;;;;;;2.50;2.30;;;;;;;;;;5018410;28;20207;-84
2023/03/24 11:47:23;;;;;;;3.08;1.52;;;;;;;;;;5015075;28;20227;-84
2023/03/24 11:49:58;;;;;;;1.95;1.45;;;;;;;;;;5015101;28;20301;-85
2023/03/24 11:52:31;;;;;;;4.18;1.67;;;;;;;;;;5014123;28;20213;-84
2023/03/24 11:55:00;;;;;;;1.48;1.30;;;;;;;;;;5009716;28;20238;-85
2023/03/24 11:57:44;;;;;;;4.82;2.55;;;;;;;;;;5014601;28;20659;-85
2023/03/24 12:00:20;;;;;;;2.47;1.73;;;;;;;;;;5014238;28;20265;-85
2023/03/24 12:03:18;;;;;;;3.13;1.98;;;;;;;;;;5013773;28;20207;-85
2023/03/24 12:05:50;;;;;;;2.30;2.00;;;;;;;;;;5010160;28;20249;-86
2023/03/24 12:08:27;;;;;;;1.65;1.48;;;;;;;;;;5014194;28;20223;-85
2023/03/24 12:11:07;;;;;;;5.43;2.80;;;;;;;;;;5013064;28;20651;-85
2023/03/24 12:13:37;;;;;;;1.42;1.33;;;;;;;;;;4995074;28;20230;-85
2023/03/24 12:16:25;;;;;;;1.88;1.20;;;;;;;;;;4994546;28;20246;-85
2023/03/24 12:19:17;;;;;;;2.38;1.70;;;;;;;;;;5000727;28;20237;-85
2023/03/24 12:21:55;;;;;;;3.45;2.03;;;;;;;;;;4991351;28;20195;-85
2023/03/24 12:24:47;;;;;;;2.10;1.55;;;;;;;;;;5013879;28;20253;-85
2023/03/24 12:27:26;;;;;;;3.17;1.65;;;;;;;;;;5014756;28;20214;-84
2023/03/24 12:30:01;;;;;;;2.92;1.50;;;;;;;;;;5016610;28;20211;-84
2023/03/24 12:32:51;;;;;;;2.55;1.67;;;;;;;;;;5015671;28;20213;-84
2023/03/24 12:35:31;;;;;;;1.67;1.58;;;;;;;;;;5017310;28;20211;-84
2023/03/24 12:38:12;;;;;;;1.67;1.35;;;;;;;;;;5014824;28;20593;-83
2023/03/24 12:41:08;;;;;;;2.90;1.40;;;;;;;;;;5015215;28;20250;-84
2023/03/24 12:43:47;;;;;;;1.38;1.20;;;;;;;;;;4995408;28;20208;-83
2023/03/24 12:46:34;;;;;;;1.40;1.30;;;;;;;;;;4995481;28;20227;-84
2023/03/24 12:49:28;;;;;;;2.67;1.60;;;;;;;;;;5009361;28;20238;-84
2023/03/24 12:52:15;;;;;;;1.00;0.90;;;;;;;;;;5009464;28;20238;-83
2023/03/24 12:54:51;;;;;;;1.83;1.50;;;;;;;;;;5003425;28;20202;-83
2023/03/24 12:57:21;;;;;;;1.95;1.45;;;;;;;;;;5016318;28;20206;-83
2023/03/24 12:59:56;;;;;;;2.08;1.55;;;;;;;;;;5015547;28;20231;-83
2023/03/24 13:02:29;;;;;;;2.97;1.80;;;;;;;;;;5017237;28;20241;-84
2023/03/24 13:05:04;;;;;;;3.38;2.45;;;;;;;;;;5015355;28;20286;-83
2023/03/24 13:07:36;;;;;;;4.50;2.40;;;;;;;;;;5013562;28;20202;-83
2023/03/24 13:10:13;;;;;;;2.95;1.73;;;;;;;;;;5014448;28;20219;-83
2023/03/24 13:12:44;;;;;;;1.40;1.30;;;;;;;;;;5015263;28;20203;-83
2023/03/24 13:15:19;;;;;;;1.50;1.40;;;;;;;;;;5014651;28;20280;-83
2023/03/24 13:17:51;;;;;;;1.50;1.40;;;;;;;;;;5011969;28;20285;-83
2023/03/24 13:20:28;;;;;;;2.47;1.55;;;;;;;;;;5014217;28;20203;-83
2023/03/24 13:22:56;;;;;;;2.95;1.98;;;;;;;;;;5014182;28;20209;-82
2023/03/24 13:25:41;;;;;;;2.38;2.00;;;;;;;;;;5015258;28;20286;-83
2023/03/24 13:28:13;;;;;;;2.15;1.95;;;;;;;;;;5013041;28;20227;-82
2023/03/24 13:30:42;;;;;;;3.85;1.85;;;;;;;;;;5014394;28;20305;-83
2023/03/24 13:33:15;;;;;;;3.45;1.58;;;;;;;;;;5015009;28;20262;-83
2023/03/24 13:36:00;;;;;;;1.88;1.70;;;;;;;;;;5013821;28;20199;-82
2023/03/24 13:38:35;;;;;;;1.77;1.67;;;;;;;;;;5013721;28;20223;-82
2023/03/24 13:41:06;;;;;;;1.92;1.35;;;;;;;;;;5009427;28;20285;-82
2023/03/24 13:43:35;;;;;;;1.65;1.45;;;;;;;;;;5010109;28;20589;-82
2023/03/24 13:46:06;;;;;;;1.60;1.23;;;;;;;;;;5011459;28;20226;-81
2023/03/24 13:48:37;;;;;;;1.73;1.63;;;;;;;;;;5012271;28;20698;-82
2023/03/24 13:51:07;;;;;;;4.10;1.63;;;;;;;;;;5015083;28;20282;-82
2023/03/24 13:53:38;;;;;;;1.52;1.23;;;;;;;;;;5013114;28;20260;-82
2023/03/24 13:56:08;;;;;;;1.30;1.10;;;;;;;;;;5010908;28;20199;-83
2023/03/24 13:59:05;;;;;;;1.38;1.25;;;;;;;;;;5015560;28;20229;-84
2023/03/24 14:01:37;;;;;;;3.90;1.38;;;;;;;;;;5013856;28;20234;-83
2023/03/24 14:04:27;;;;;;;0.93;0.93;;;;;;;;;;5012074;28;20576;-82
2023/03/24 14:06:57;;;;;;;5.15;1.33;;;;;;;;;;4997349;28;20389;-82
2023/03/24 14:09:26;;;;;;;2.67;1.48;;;;;;;;;;4999197;28;20262;-82
2023/03/24 14:12:20;;;;;;;2.42;1.20;;;;;;;;;;5013198;28;20203;-82
2023/03/24 14:15:16;;;;;;;2.47;1.42;;;;;;;;;;5016220;28;20245;-83
2023/03/24 14:17:47;;;;;;;2.92;1.30;;;;;;;;;;5010466;28;20205;-83
2023/03/24 14:20:34;;;;;;;1.33;1.20;;;;;;;;;;5013210;28;20219;-83
2023/03/24 14:23:03;;;;;;;2.30;1.33;;;;;;;;;;5014996;28;20217;-82
2023/03/24 14:25:32;;;;;;;2.88;1.73;;;;;;;;;;5016829;28;20202;-82
2023/03/24 14:28:23;;;;;;;1.52;1.10;;;;;;;;;;5014521;28;20221;-82
2023/03/24 14:31:02;;;;;;;2.33;1.33;;;;;;;;;;5014913;28;20286;-82
2023/03/24 14:33:31;;;;;;;4.32;1.58;;;;;;;;;;5013443;28;20631;-82
2023/03/24 14:36:03;;;;;;;1.63;0.95;;;;;;;;;;5008576;28;20287;-84
2023/03/24 14:38:36;;;;;;;2.67;1.85;;;;;;;;;;5008353;28;20228;-83
2023/03/24 14:41:09;;;;;;;3.60;2.80;;;;;;;;;;5010179;28;20206;-83
2023/03/24 14:43:56;;;;;;;1.95;1.80;;;;;;;;;;5013500;28;20593;-83
2023/03/24 14:46:46;;;;;;;2.95;1.42;;;;;;;;;;5012118;28;20234;-83
2023/03/24 14:49:29;;;;;;;1.58;1.45;;;;;;;;;;5009153;28;20621;-83
2023/03/24 14:52:02;;;;;;;1.48;1.00;;;;;;;;;;5007871;28;20195;-83
2023/03/24 14:54:37;;;;;;;2.22;1.20;;;;;;;;;;5014536;28;20207;-84
2023/03/24 14:57:06;;;;;;;4.00;1.10;;;;;;;;;;5008828;28;20202;-85
2023/03/24 14:59:42;;;;;;;1.60;1.10;;;;;;;;;;5006925;28;20302;-83
2023/03/24 15:02:28;;;;;;;1.15;0.90;;;;;;;;;;5014602;28;20249;-83
2023/03/24 15:05:24;;;;;;;2.22;0.90;;;;;;;;;;5011043;28;20199;-83
2023/03/24 15:08:21;;;;;;;2.72;0.93;;;;;;;;;;5014183;28;20207;-83
2023/03/24 15:10:50;;;;;;;1.05;1.00;;;;;;;;;;5010271;28;20270;-83
2023/03/24 15:13:34;;;;;;;1.70;1.00;;;;;;;;;;5005444;28;20203;-84
2023/03/24 15:16:06;;;;;;;2.42;1.10;;;;;;;;;;5015736;28;20206;-83
2023/03/24 15:18:34;;;;;;;1.52;1.10;;;;;;;;;;5016413;28;20310;-83